createdAt,value
2018-02-15T00:01:08.895Z,46.27
2018-02-15T00:03:35.531Z,47.63
2018-02-15T00:06:02.914Z,49.77
2018-02-15T00:08:29.656Z,53.57
2018-02-15T00:10:56.905Z,49.10
2018-02-15T00:13:23.514Z,46.47
2018-02-15T00:15:50.385Z,43.53
2018-02-15T00:18:17.021Z,49.13
2018-02-15T00:20:43.580Z,51.70
2018-02-15T00:23:10.259Z,55.07
2018-02-15T00:25:37.034Z,38.43
2018-02-15T00:28:03.815Z,44.13
2018-02-15T00:30:31.753Z,44.77
2018-02-15T00:32:58.420Z,54.27
2018-02-15T00:35:25.118Z,59.20
2018-02-15T00:37:51.775Z,64.17
2018-02-15T00:40:19.437Z,59.70
2018-02-15T00:42:46.182Z,52.07
2018-02-15T00:45:12.797Z,58.53
2018-02-15T00:47:39.364Z,70.10
2018-02-15T00:50:06.808Z,35.87
2018-02-15T00:52:33.979Z,48.37
2018-02-15T00:55:01.103Z,52.67
2018-02-15T00:57:27.683Z,56.47
2018-02-15T00:59:55.057Z,46.17
2018-02-15T01:02:22.902Z,51.93
2018-02-15T01:04:49.477Z,49.70
2018-02-15T01:07:16.493Z,55.23
2018-02-15T01:09:43.883Z,59.10
2018-02-15T01:12:10.566Z,65.53
2018-02-15T01:14:37.254Z,54.60
2018-02-15T01:17:04.973Z,58.10
2018-02-15T01:19:32.269Z,58.07
2018-02-15T01:21:58.829Z,55.63
2018-02-15T01:24:25.491Z,51.73
2018-02-15T01:26:52.884Z,58.23
2018-02-15T01:29:20.545Z,71.53
2018-02-15T01:31:47.092Z,54.37
2018-02-15T01:34:13.802Z,54.00
2018-02-15T01:36:40.404Z,61.37
2018-02-15T01:39:08.374Z,67.33
2018-02-15T01:41:35.542Z,60.90
2018-02-15T01:44:03.055Z,47.60
2018-02-15T01:46:30.468Z,58.13
2018-02-15T01:48:57.401Z,57.90
2018-02-15T01:51:24.048Z,63.63
2018-02-15T01:53:50.585Z,62.00
2018-02-15T01:56:26.060Z,54.60
2018-02-15T01:58:52.595Z,58.07
2018-02-15T02:01:19.153Z,59.40
2018-02-15T02:03:46.662Z,66.10
2018-02-15T02:06:15.393Z,62.37
2018-02-15T02:08:42.386Z,54.67
2018-02-15T02:11:10.185Z,61.43
2018-02-15T02:13:37.538Z,61.47
2018-02-15T02:16:04.079Z,65.17
2018-02-15T02:18:31.049Z,58.73
2018-02-15T02:20:57.615Z,69.40
2018-02-15T02:23:24.529Z,55.40
2018-02-15T02:25:52.061Z,61.80
2018-02-15T02:28:18.719Z,66.03
2018-02-15T02:30:45.609Z,57.00
2018-02-15T02:33:13.037Z,70.73
2018-02-15T02:35:40.685Z,71.00
2018-02-15T02:38:07.982Z,51.50
2018-02-15T02:40:35.855Z,62.70
2018-02-15T02:43:02.465Z,60.60
2018-02-15T02:45:29.844Z,55.37
2018-02-15T02:47:56.789Z,77.67
2018-02-15T02:50:23.671Z,67.30
2018-02-15T02:52:51.129Z,72.37
2018-02-15T02:55:18.214Z,61.53
2018-02-15T02:57:44.816Z,76.70
2018-02-15T03:00:12.469Z,61.30
2018-02-15T03:02:39.634Z,73.00
2018-02-15T03:05:06.892Z,60.43
2018-02-15T03:07:33.802Z,69.40
2018-02-15T03:10:00.816Z,49.70
2018-02-15T03:12:28.070Z,61.60
2018-02-15T03:14:54.999Z,48.27
2018-02-15T03:17:21.680Z,52.40
2018-02-15T03:19:48.993Z,53.60
2018-02-15T03:22:15.922Z,77.43
2018-02-15T03:24:42.784Z,73.10
2018-02-15T03:27:11.344Z,64.17
2018-02-15T03:29:37.958Z,75.60
2018-02-15T03:32:05.442Z,58.50
2018-02-15T03:34:32.357Z,69.47
2018-02-15T03:36:58.857Z,72.70
2018-02-15T03:39:26.401Z,77.87
2018-02-15T03:41:53.743Z,68.70
2018-02-15T03:44:21.036Z,67.53
2018-02-15T03:46:48.062Z,80.57
2018-02-15T03:49:14.989Z,77.60
2018-02-15T03:51:41.884Z,75.73
2018-02-15T03:54:08.835Z,83.97
2018-02-15T03:56:36.193Z,83.10
2018-02-15T03:59:03.196Z,67.23
2018-02-15T04:01:30.895Z,82.87
2018-02-15T04:03:57.833Z,66.30
2018-02-15T04:06:25.519Z,69.17
2018-02-15T04:08:52.433Z,70.37
2018-02-15T04:11:19.720Z,75.13
2018-02-15T04:13:46.983Z,64.10
2018-02-15T04:16:13.972Z,76.17
2018-02-15T04:18:40.888Z,79.87
2018-02-15T04:21:07.433Z,71.87
2018-02-15T04:23:34.395Z,77.13
2018-02-15T04:26:01.347Z,89.90
2018-02-15T04:28:28.009Z,75.80
2018-02-15T04:30:55.313Z,61.60
2018-02-15T04:33:22.382Z,66.77
2018-02-15T04:35:48.964Z,74.60
2018-02-15T04:38:16.732Z,78.13
2018-02-15T04:40:43.710Z,75.47
2018-02-15T04:43:10.993Z,69.63
2018-02-15T04:45:38.002Z,57.67
2018-02-15T04:48:04.865Z,71.90
2018-02-15T04:50:32.566Z,62.90
2018-02-15T04:52:59.685Z,84.40
2018-02-15T04:55:26.165Z,78.77
2018-02-15T04:57:53.167Z,83.43
2018-02-15T05:00:20.870Z,72.87
2018-02-15T05:02:47.527Z,70.70
2018-02-15T05:05:14.847Z,55.97
2018-02-15T05:07:42.426Z,65.63
2018-02-15T05:10:10.834Z,69.07
2018-02-15T05:12:37.692Z,64.17
2018-02-15T05:15:05.130Z,64.90
2018-02-15T05:17:32.071Z,78.73
2018-02-15T05:19:59.377Z,45.47
2018-02-15T05:22:26.812Z,69.33
2018-02-15T05:24:54.416Z,64.30
2018-02-15T05:27:22.617Z,52.17
2018-02-15T05:29:51.416Z,41.57
2018-02-15T05:32:20.068Z,42.83
2018-02-15T05:34:47.015Z,45.97
2018-02-15T05:37:14.126Z,52.00
2018-02-15T05:39:42.329Z,60.37
2018-02-15T05:42:09.168Z,65.37
2018-02-15T05:44:36.852Z,44.07
2018-02-15T05:47:05.047Z,44.63
2018-02-15T05:49:33.046Z,65.60
2018-02-15T05:52:00.043Z,48.67
2018-02-15T05:54:26.987Z,58.37
2018-02-15T05:56:54.034Z,58.43
2018-02-15T05:59:22.267Z,57.00
2018-02-15T06:01:49.931Z,53.00
2018-02-15T06:04:16.523Z,38.97
2018-02-15T06:06:43.176Z,45.40
2018-02-15T06:09:10.464Z,59.83
2018-02-15T06:11:37.750Z,54.77
2018-02-15T06:14:05.028Z,50.73
2018-02-15T06:16:33.301Z,50.67
2018-02-15T06:19:01.338Z,56.00
2018-02-15T06:21:29.051Z,47.07
2018-02-15T06:23:56.395Z,61.53
2018-02-15T06:26:23.313Z,55.57
2018-02-15T06:28:52.173Z,45.97
2018-02-15T06:31:20.040Z,38.27
2018-02-15T06:33:47.896Z,60.70
2018-02-15T06:36:14.658Z,60.03
2018-02-15T06:38:42.983Z,48.77
2018-02-15T06:41:10.672Z,49.47
2018-02-15T06:43:39.817Z,50.17
2018-02-15T06:46:06.465Z,38.97
2018-02-15T06:48:33.545Z,50.23
2018-02-15T06:51:00.538Z,54.87
2018-02-15T06:53:27.081Z,54.93
2018-02-15T06:55:53.992Z,48.63
2018-02-15T06:58:21.665Z,58.03
2018-02-15T07:00:49.331Z,49.37
2018-02-15T07:03:15.902Z,45.43
2018-02-15T07:05:42.510Z,42.27
2018-02-15T07:08:09.437Z,38.57
2018-02-15T07:10:36.035Z,40.80
2018-02-15T07:13:04.249Z,25.50
2018-02-15T07:15:31.587Z,32.87
2018-02-15T07:17:59.237Z,51.23
2018-02-15T07:20:27.728Z,50.13
2018-02-15T07:22:56.966Z,45.53
2018-02-15T07:25:25.193Z,37.43
2018-02-15T07:27:51.775Z,38.30
2018-02-15T07:30:18.669Z,42.00
2018-02-15T07:32:45.826Z,50.00
2018-02-15T07:35:12.766Z,38.07
2018-02-15T07:37:39.885Z,45.70
2018-02-15T07:40:06.802Z,53.23
2018-02-15T07:42:35.210Z,44.07
2018-02-15T07:45:01.841Z,35.00
2018-02-15T07:47:28.471Z,41.10
2018-02-15T07:49:56.320Z,52.80
2018-02-15T07:52:23.217Z,48.93
2018-02-15T07:54:51.572Z,46.87
2018-02-15T07:57:18.213Z,42.80
2018-02-15T07:59:44.824Z,35.83
2018-02-15T08:02:11.427Z,40.13
2018-02-15T08:04:43.848Z,39.47
2018-02-15T08:07:10.511Z,44.70
2018-02-15T08:09:37.060Z,48.13
2018-02-15T08:12:05.552Z,53.03
2018-02-15T08:14:32.217Z,50.17
2018-02-15T08:16:58.887Z,54.37
2018-02-15T08:19:25.630Z,49.00
2018-02-15T08:21:52.268Z,53.03
2018-02-15T08:24:18.794Z,46.97
2018-02-15T08:26:45.460Z,53.80
2018-02-15T08:29:11.965Z,41.17
2018-02-15T08:31:38.857Z,48.20
2018-02-15T08:34:07.340Z,46.00
2018-02-15T08:36:34.257Z,47.70
2018-02-15T08:39:00.843Z,53.67
2018-02-15T08:41:27.918Z,54.23
2018-02-15T08:43:54.518Z,46.63
2018-02-15T08:46:21.487Z,48.23
2018-02-15T08:48:48.488Z,42.70
2018-02-15T08:51:16.104Z,44.13
2018-02-15T08:53:43.853Z,45.73
2018-02-15T08:56:12.226Z,38.83
2018-02-15T08:58:38.895Z,47.20
2018-02-15T09:01:07.095Z,57.57
2018-02-15T09:03:34.996Z,52.87
2018-02-15T09:06:02.483Z,51.77
2018-02-15T09:08:29.833Z,54.83
2018-02-15T09:10:58.216Z,45.73
2018-02-15T09:13:24.852Z,55.60
2018-02-15T09:15:51.909Z,54.17
2018-02-15T09:18:20.547Z,49.73
2018-02-15T09:20:47.308Z,43.43
2018-02-15T09:23:14.012Z,57.87
2018-02-15T09:25:40.725Z,47.03
2018-02-15T09:28:07.409Z,37.80
2018-02-15T09:30:34.305Z,44.10
2018-02-15T09:33:01.297Z,45.33
2018-02-15T09:35:29.129Z,52.50
2018-02-15T09:37:55.723Z,44.87
2018-02-15T09:40:22.639Z,45.43
2018-02-15T09:42:49.603Z,40.37
2018-02-15T09:45:16.158Z,46.93
2018-02-15T09:47:43.057Z,41.13
2018-02-15T09:50:10.378Z,36.37
2018-02-15T09:52:38.621Z,56.10
2018-02-15T09:55:06.831Z,42.10
2018-02-15T09:57:34.944Z,38.37
2018-02-15T10:00:01.567Z,45.37
2018-02-15T10:02:28.740Z,33.73
2018-02-15T10:04:56.963Z,36.60
2018-02-15T10:07:26.127Z,39.80
2018-02-15T10:09:55.734Z,41.60
2018-02-15T10:12:25.421Z,47.90
2018-02-15T10:14:54.003Z,40.07
2018-02-15T10:17:24.651Z,51.10
2018-02-15T10:19:51.510Z,56.60
2018-02-15T10:22:18.555Z,51.23
2018-02-15T10:24:45.240Z,32.30
2018-02-15T10:27:11.990Z,43.37
2018-02-15T10:29:39.748Z,52.37
2018-02-15T10:32:06.319Z,52.87
2018-02-15T10:34:32.846Z,49.30
2018-02-15T10:37:01.131Z,47.57
2018-02-15T10:39:28.114Z,51.47
2018-02-15T10:41:55.098Z,47.57
2018-02-15T10:44:22.130Z,47.90
2018-02-15T10:46:49.017Z,43.10
2018-02-15T10:49:16.043Z,46.90
2018-02-15T10:51:44.501Z,51.73
2018-02-15T10:54:11.795Z,43.07
2018-02-15T10:56:39.206Z,53.70
2018-02-15T10:59:07.017Z,60.43
2018-02-15T11:01:39.439Z,46.97
2018-02-15T11:04:14.760Z,40.83
2018-02-15T11:06:41.320Z,56.47
2018-02-15T11:09:09.536Z,55.43
2018-02-15T11:11:36.075Z,49.47
2018-02-15T11:14:03.010Z,46.47
2018-02-15T11:16:29.894Z,49.67
2018-02-15T11:18:58.905Z,54.00
2018-02-15T11:21:25.484Z,54.63
2018-02-15T11:23:51.992Z,39.57
2018-02-15T11:26:18.564Z,50.03
2018-02-15T11:28:46.987Z,40.17
2018-02-15T11:31:13.569Z,46.30
2018-02-15T11:33:41.490Z,52.17
2018-02-15T11:36:08.147Z,55.87
2018-02-15T11:38:36.005Z,39.10
2018-02-15T11:41:03.495Z,34.97
2018-02-15T11:43:30.108Z,66.50
2018-02-15T11:45:56.694Z,51.03
2018-02-15T11:48:24.464Z,39.10
2018-02-15T11:50:51.189Z,54.47
2018-02-15T11:53:17.755Z,38.13
2018-02-15T11:55:45.181Z,51.73
2018-02-15T11:58:11.749Z,60.13
2018-02-15T12:00:38.721Z,63.40
2018-02-15T12:03:05.695Z,33.30
2018-02-15T12:05:32.261Z,41.63
2018-02-15T12:07:59.240Z,57.03
2018-02-15T12:10:26.712Z,54.97
2018-02-15T12:12:54.880Z,52.93
2018-02-15T12:15:22.420Z,50.53
2018-02-15T12:17:49.079Z,49.37
2018-02-15T12:20:16.052Z,56.63
2018-02-15T12:22:44.300Z,44.20
2018-02-15T12:25:12.092Z,57.33
2018-02-15T12:27:38.597Z,41.67
2018-02-15T12:30:07.817Z,56.27
2018-02-15T12:32:34.764Z,69.90
2018-02-15T12:35:01.315Z,56.73
2018-02-15T12:37:28.250Z,40.70
2018-02-15T12:39:55.914Z,60.93
2018-02-15T12:42:22.867Z,64.07
2018-02-15T12:44:51.074Z,52.73
2018-02-15T12:47:17.777Z,54.53
2018-02-15T12:49:45.876Z,54.57
2018-02-15T12:52:12.388Z,57.17
2018-02-15T12:54:38.953Z,58.40
2018-02-15T12:57:06.447Z,57.50
2018-02-15T12:59:34.092Z,47.87
2018-02-15T13:02:01.248Z,47.80
2018-02-15T13:04:28.148Z,47.13
2018-02-15T13:06:54.674Z,47.97
2018-02-15T13:09:21.278Z,53.60
2018-02-15T13:11:47.819Z,52.10
2018-02-15T13:14:14.409Z,53.63
2018-02-15T13:16:59.682Z,55.37
2018-02-15T13:19:39.481Z,42.23
2018-02-15T13:22:18.139Z,46.70
2018-02-15T13:24:44.678Z,57.33
2018-02-15T13:27:11.604Z,40.67
2018-02-15T13:29:39.640Z,56.93
2018-02-15T13:32:06.175Z,44.73
2018-02-15T13:34:32.795Z,49.10
2018-02-15T13:36:59.327Z,46.20
2018-02-15T13:39:27.519Z,50.77
2018-02-15T13:41:54.290Z,51.27
2018-02-15T13:44:21.324Z,62.63
2018-02-15T13:46:47.873Z,51.80
2018-02-15T13:49:15.129Z,57.20
2018-02-15T13:51:43.443Z,65.27
2018-02-15T13:54:11.772Z,38.20
2018-02-15T13:56:39.156Z,51.47
2018-02-15T13:59:07.715Z,60.30
2018-02-15T14:01:34.297Z,47.60
2018-02-15T14:04:01.731Z,53.67
2018-02-15T14:06:28.787Z,55.47
2018-02-15T14:08:57.003Z,51.40
2018-02-15T14:11:26.442Z,59.23
2018-02-15T14:13:54.180Z,58.27
2018-02-15T14:16:20.751Z,55.37
2018-02-15T14:18:47.310Z,66.57
2018-02-15T14:21:13.976Z,47.70
2018-02-15T14:23:40.593Z,59.40
2018-02-15T14:26:07.190Z,52.80
2018-02-15T14:28:35.548Z,58.33
2018-02-15T14:31:02.236Z,52.87
2018-02-15T14:33:34.018Z,78.37
2018-02-15T14:36:02.158Z,53.93
2018-02-15T14:38:28.732Z,57.93
2018-02-15T14:40:55.700Z,55.50
2018-02-15T14:43:22.372Z,69.70
2018-02-15T14:45:49.723Z,53.90
2018-02-15T14:48:16.298Z,68.53
2018-02-15T14:50:43.365Z,67.37
2018-02-15T14:53:10.616Z,87.27
2018-02-15T14:55:38.840Z,56.37
2018-02-15T14:58:06.215Z,35.07
2018-02-15T15:00:33.280Z,25.53
2018-02-15T15:02:59.948Z,58.87
2018-02-15T15:05:26.869Z,55.87
2018-02-15T15:07:53.462Z,45.67
2018-02-15T15:10:19.993Z,58.53
2018-02-15T15:12:47.165Z,56.13
2018-02-15T15:15:14.566Z,41.67
2018-02-15T15:17:41.696Z,41.13
2018-02-15T15:20:09.262Z,47.83
2018-02-15T15:22:35.796Z,52.33
2018-02-15T15:25:02.798Z,54.83
2018-02-15T15:27:29.427Z,33.77
2018-02-15T15:29:56.724Z,50.10
2018-02-15T15:32:23.630Z,51.73
2018-02-15T15:34:52.983Z,27.43
2018-02-15T15:37:21.590Z,44.07
2018-02-15T15:39:48.227Z,66.03
2018-02-15T15:42:16.394Z,52.17
2018-02-15T15:44:43.370Z,43.93
2018-02-15T15:47:11.588Z,50.23
2018-02-15T15:49:38.622Z,61.87
2018-02-15T15:52:05.465Z,57.53
2018-02-15T15:54:33.069Z,32.57
2018-02-15T15:57:00.138Z,71.43
2018-02-15T15:59:27.024Z,54.23
2018-02-15T16:01:54.125Z,53.20
2018-02-15T16:04:21.126Z,45.00
2018-02-15T16:06:47.999Z,47.33
2018-02-15T16:09:16.638Z,48.80
2018-02-15T16:11:43.999Z,55.60
2018-02-15T16:14:10.609Z,46.67
2018-02-15T16:16:37.553Z,48.37
2018-02-15T16:19:06.040Z,68.90
2018-02-15T16:21:32.636Z,63.40
2018-02-15T16:24:00.332Z,59.00
2018-02-15T16:26:26.897Z,54.23
2018-02-15T16:28:53.442Z,56.37
2018-02-15T16:31:20.407Z,55.77
2018-02-15T16:33:52.537Z,53.20
2018-02-15T16:36:19.452Z,65.60
2018-02-15T16:38:46.748Z,51.37
2018-02-15T16:41:13.369Z,58.73
2018-02-15T16:43:39.900Z,59.37
2018-02-15T16:46:10.081Z,63.73
2018-02-15T16:48:38.361Z,62.23
2018-02-15T16:51:04.944Z,61.13
2018-02-15T16:53:33.202Z,49.03
2018-02-15T16:56:01.765Z,46.53
2018-02-15T16:58:29.387Z,58.77
2018-02-15T17:00:56.971Z,57.67
2018-02-15T17:03:25.591Z,51.40
2018-02-15T17:05:54.381Z,54.30
2018-02-15T17:08:21.054Z,54.40
2018-02-15T17:10:48.042Z,58.37
2018-02-15T17:13:15.997Z,67.60
2018-02-15T17:15:43.545Z,63.43
2018-02-15T17:18:10.270Z,63.57
2018-02-15T17:20:38.662Z,72.57
2018-02-15T17:23:06.321Z,65.03
2018-02-15T17:25:33.836Z,55.00
2018-02-15T17:28:00.857Z,54.43
2018-02-15T17:30:27.704Z,53.30
2018-02-15T17:32:55.810Z,61.10
2018-02-15T17:35:22.647Z,84.57
2018-02-15T17:37:50.920Z,55.97
2018-02-15T17:40:18.272Z,56.83
2018-02-15T17:42:44.776Z,65.53
2018-02-15T17:45:12.919Z,61.23
2018-02-15T17:47:40.745Z,63.10
2018-02-15T17:50:11.714Z,65.63
2018-02-15T17:52:39.034Z,62.20
2018-02-15T17:55:06.964Z,64.83
2018-02-15T17:57:33.854Z,73.23
2018-02-15T18:00:00.581Z,66.87
2018-02-15T18:02:28.896Z,70.90
2018-02-15T18:04:56.271Z,58.10
2018-02-15T18:07:22.912Z,73.40
2018-02-15T18:09:49.577Z,65.77
2018-02-15T18:12:16.061Z,70.23
2018-02-15T18:14:42.635Z,83.67
2018-02-15T18:17:09.299Z,67.93
2018-02-15T18:19:36.602Z,73.10
2018-02-15T18:22:03.118Z,57.13
2018-02-15T18:24:29.702Z,58.87
2018-02-15T18:26:56.232Z,65.13
2018-02-15T18:29:23.491Z,61.47
2018-02-15T18:31:50.384Z,64.33
2018-02-15T18:34:18.660Z,73.33
2018-02-15T18:36:45.239Z,62.40
2018-02-15T18:39:11.822Z,50.47
2018-02-15T18:41:39.201Z,71.60
2018-02-15T18:44:09.056Z,72.17
2018-02-15T18:46:36.091Z,41.83
2018-02-15T18:49:04.896Z,50.43
2018-02-15T18:51:32.624Z,61.50
2018-02-15T18:53:59.744Z,51.87
2018-02-15T18:56:26.421Z,51.87
2018-02-15T18:58:53.727Z,66.27
2018-02-15T19:01:20.843Z,60.10
2018-02-15T19:03:49.071Z,54.50
2018-02-15T19:06:15.794Z,61.70
2018-02-15T19:08:43.577Z,60.63
2018-02-15T19:11:10.577Z,66.53
2018-02-15T19:13:37.935Z,54.00
2018-02-15T19:16:04.650Z,54.33
2018-02-15T19:18:31.967Z,65.30
2018-02-15T19:20:59.339Z,67.63
2018-02-15T19:23:27.004Z,66.07
2018-02-15T19:25:54.766Z,68.43
2018-02-15T19:28:21.358Z,53.43
2018-02-15T19:30:48.314Z,52.10
2018-02-15T19:33:14.853Z,41.67
2018-02-15T19:35:41.547Z,78.17
2018-02-15T19:38:08.194Z,64.17
2018-02-15T19:40:34.770Z,60.53
2018-02-15T19:43:01.395Z,79.57
2018-02-15T19:45:31.882Z,67.37
2018-02-15T19:47:59.021Z,57.40
2018-02-15T19:50:26.858Z,56.03
2018-02-15T19:52:55.020Z,64.97
2018-02-15T19:55:22.114Z,63.30
2018-02-15T19:57:48.690Z,55.27
2018-02-15T20:00:15.664Z,76.10
2018-02-15T20:02:42.492Z,57.30
2018-02-15T20:05:09.129Z,52.27
2018-02-15T20:07:35.971Z,47.20
2018-02-15T20:10:04.916Z,52.13
2018-02-15T20:12:31.530Z,60.07
2018-02-15T20:14:59.592Z,63.63
2018-02-15T20:17:26.156Z,65.93
2018-02-15T20:19:58.769Z,59.47
2018-02-15T20:22:32.845Z,72.80
2018-02-15T20:25:05.064Z,65.00
2018-02-15T20:30:32.940Z,55.97
2018-02-15T20:33:00.283Z,66.47
2018-02-15T20:35:30.711Z,61.90
2018-02-15T20:38:05.359Z,51.73
2018-02-15T20:40:36.960Z,64.30
2018-02-15T20:43:03.886Z,62.77
2018-02-15T20:45:30.508Z,60.90
2018-02-15T20:47:58.973Z,63.77
2018-02-15T20:50:31.482Z,60.27
2018-02-15T20:53:05.366Z,45.17
2018-02-15T20:55:38.021Z,65.27
2018-02-15T20:58:04.484Z,53.83
2018-02-15T21:00:31.034Z,60.07
2018-02-15T21:02:58.340Z,61.90
2018-02-15T21:05:25.547Z,63.20
2018-02-15T21:07:52.064Z,41.27
2018-02-15T21:10:18.581Z,72.80
2018-02-15T21:12:45.458Z,55.43
2018-02-15T21:15:12.372Z,57.50
2018-02-15T21:17:39.296Z,67.50
2018-02-15T21:20:06.629Z,61.40
2018-02-15T21:22:33.152Z,63.10
2018-02-15T21:25:00.791Z,62.90
2018-02-15T21:27:28.137Z,58.97
2018-02-15T21:29:54.662Z,37.57
2018-02-15T21:32:22.032Z,49.13
2018-02-15T21:34:49.024Z,45.50
2018-02-15T21:37:16.361Z,53.90
2018-02-15T21:39:43.988Z,61.07
2018-02-15T21:42:11.229Z,57.27
2018-02-15T21:44:43.514Z,53.03
2018-02-15T21:47:10.840Z,57.20
2018-02-15T21:49:38.802Z,63.80
2018-02-15T21:52:05.614Z,44.73
2018-02-15T21:54:32.349Z,60.23
2018-02-15T21:56:59.061Z,52.67
2018-02-15T21:59:25.473Z,54.20
2018-02-15T22:01:52.017Z,55.50
2018-02-15T22:04:18.779Z,47.27
2018-02-15T22:06:45.205Z,58.70
2018-02-15T22:09:11.643Z,44.13
2018-02-15T22:11:39.537Z,57.13
2018-02-15T22:14:06.285Z,61.87
2018-02-15T22:16:33.954Z,53.00
2018-02-15T22:19:01.164Z,46.80
2018-02-15T22:21:28.972Z,60.80
2018-02-15T22:23:56.503Z,45.10
2018-02-15T22:26:23.967Z,51.07
2018-02-15T22:28:51.620Z,60.00
2018-02-15T22:31:19.652Z,58.07
2018-02-15T22:33:46.202Z,61.67
2018-02-15T22:36:13.420Z,63.07
2018-02-15T22:38:40.641Z,61.73
2018-02-15T22:41:07.657Z,63.10
2018-02-15T22:43:34.632Z,61.50
2018-02-15T22:46:01.981Z,38.90
2018-02-15T22:48:29.274Z,60.50
2018-02-15T22:50:57.111Z,68.67
2018-02-15T22:53:24.324Z,53.50
2018-02-15T22:55:51.943Z,73.60
2018-02-15T22:58:19.364Z,74.83
2018-02-15T23:00:46.360Z,50.70
2018-02-15T23:03:13.055Z,63.73
2018-02-15T23:05:39.809Z,89.07
2018-02-15T23:08:07.306Z,80.73
2018-02-15T23:10:35.783Z,90.73
2018-02-15T23:13:02.917Z,81.93
2018-02-15T23:15:29.661Z,78.57
2018-02-15T23:17:56.405Z,86.90
2018-02-15T23:20:23.001Z,79.77
2018-02-15T23:22:49.645Z,70.23
2018-02-15T23:25:17.170Z,84.77
2018-02-15T23:27:43.532Z,70.93
2018-02-15T23:30:10.016Z,80.00
2018-02-15T23:32:37.053Z,81.50
2018-02-15T23:35:03.529Z,91.03
2018-02-15T23:37:31.244Z,82.90
2018-02-15T23:39:57.676Z,89.30
2018-02-15T23:42:24.215Z,79.20
2018-02-15T23:44:51.902Z,83.70
2018-02-15T23:47:19.592Z,89.50
2018-02-15T23:49:47.309Z,83.07
2018-02-15T23:52:14.373Z,89.60
2018-02-15T23:54:43.072Z,82.67
2018-02-15T23:57:09.640Z,82.47
2018-02-15T23:59:36.855Z,86.33
